sensor_id;sensor_type;location;lat;lon;timestamp;pressure;altitude;pressure_sealevel;temperature;humidity
62203;BME280;48199;49.138;7.414;2022-08-03T00:00:45;98446.84;;;16.15;93.55
62203;BME280;48199;49.138;7.414;2022-08-03T00:03:11;98454.00;;;16.13;93.56
62203;BME280;48199;49.138;7.414;2022-08-03T00:05:36;98449.75;;;16.09;93.66
62203;BME280;48199;49.138;7.414;2022-08-03T00:08:02;98452.81;;;16.00;93.72
62203;BME280;48199;49.138;7.414;2022-08-03T00:10:27;98447.97;;;15.90;94.31
62203;BME280;48199;49.138;7.414;2022-08-03T00:12:53;98445.66;;;15.82;94.95
62203;BME280;48199;49.138;7.414;2022-08-03T00:15:19;98434.91;;;15.85;94.77
62203;BME280;48199;49.138;7.414;2022-08-03T00:17:44;98443.66;;;15.67;94.82
62203;BME280;48199;49.138;7.414;2022-08-03T00:20:10;98442.72;;;15.68;95.69
62203;BME280;48199;49.138;7.414;2022-08-03T00:22:35;98445.00;;;15.77;96.03
62203;BME280;48199;49.138;7.414;2022-08-03T00:25:01;98441.16;;;15.84;95.82
62203;BME280;48199;49.138;7.414;2022-08-03T00:27:26;98441.16;;;15.84;95.13
62203;BME280;48199;49.138;7.414;2022-08-03T00:29:51;98436.09;;;15.78;94.89
62203;BME280;48199;49.138;7.414;2022-08-03T00:32:17;98443.13;;;15.79;95.31
62203;BME280;48199;49.138;7.414;2022-08-03T00:34:42;98439.69;;;15.77;95.50
62203;BME280;48199;49.138;7.414;2022-08-03T00:37:07;98442.47;;;15.74;95.50
62203;BME280;48199;49.138;7.414;2022-08-03T00:39:33;98441.53;;;15.75;95.32
62203;BME280;48199;49.138;7.414;2022-08-03T00:42:03;98438.94;;;15.74;95.05
62203;BME280;48199;49.138;7.414;2022-08-03T00:44:28;98432.19;;;15.67;95.13
62203;BME280;48199;49.138;7.414;2022-08-03T00:46:53;98430.50;;;15.44;95.19
62203;BME280;48199;49.138;7.414;2022-08-03T00:49:19;98438.94;;;15.32;95.79
62203;BME280;48199;49.138;7.414;2022-08-03T00:51:44;98436.72;;;15.22;96.69
62203;BME280;48199;49.138;7.414;2022-08-03T00:54:10;98439.72;;;15.34;97.48
62203;BME280;48199;49.138;7.414;2022-08-03T00:56:36;98437.78;;;15.39;97.09
62203;BME280;48199;49.138;7.414;2022-08-03T00:59:02;98426.38;;;15.37;97.13
62203;BME280;48199;49.138;7.414;2022-08-03T01:01:28;98428.84;;;15.20;96.53
62203;BME280;48199;49.138;7.414;2022-08-03T01:03:53;98434.66;;;15.28;97.26
62203;BME280;48199;49.138;7.414;2022-08-03T01:06:33;98427.66;;;15.27;97.38
62203;BME280;48199;49.138;7.414;2022-08-03T01:11:53;98432.84;;;15.30;97.72
62203;BME280;48199;49.138;7.414;2022-08-03T01:14:24;98429.38;;;15.28;97.40
62203;BME280;48199;49.138;7.414;2022-08-03T01:19:40;98411.84;;;15.04;96.87
62203;BME280;48199;49.138;7.414;2022-08-03T01:25:05;98422.72;;;15.18;97.29
62203;BME280;48199;49.138;7.414;2022-08-03T01:30:23;98419.91;;;15.01;97.15
62203;BME280;48199;49.138;7.414;2022-08-03T01:33:10;98416.31;;;15.02;96.33
62203;BME280;48199;49.138;7.414;2022-08-03T01:38:10;98404.97;;;14.77;97.65
62203;BME280;48199;49.138;7.414;2022-08-03T01:40:39;98410.66;;;14.89;98.07
62203;BME280;48199;49.138;7.414;2022-08-03T01:43:06;98400.38;;;14.82;98.14
62203;BME280;48199;49.138;7.414;2022-08-03T01:45:33;98406.97;;;14.72;98.15
62203;BME280;48199;49.138;7.414;2022-08-03T01:48:00;98410.16;;;14.80;98.76
62203;BME280;48199;49.138;7.414;2022-08-03T01:50:28;98412.44;;;14.89;98.79
62203;BME280;48199;49.138;7.414;2022-08-03T01:52:55;98405.19;;;14.94;98.16
62203;BME280;48199;49.138;7.414;2022-08-03T01:55:23;98406.19;;;14.90;97.75
62203;BME280;48199;49.138;7.414;2022-08-03T01:57:50;98403.78;;;14.85;97.84
62203;BME280;48199;49.138;7.414;2022-08-03T02:00:16;98405.31;;;14.91;97.59
62203;BME280;48199;49.138;7.414;2022-08-03T02:02:43;98399.72;;;14.75;96.90
62203;BME280;48199;49.138;7.414;2022-08-03T02:05:12;98404.91;;;14.57;97.46
62203;BME280;48199;49.138;7.414;2022-08-03T02:07:40;98404.72;;;14.61;98.73
62203;BME280;48199;49.138;7.414;2022-08-03T02:10:06;98396.88;;;14.58;98.27
62203;BME280;48199;49.138;7.414;2022-08-03T02:12:33;98396.56;;;14.44;99.01
62203;BME280;48199;49.138;7.414;2022-08-03T02:15:00;98395.34;;;14.53;98.10
62203;BME280;48199;49.138;7.414;2022-08-03T02:17:27;98397.06;;;14.54;98.05
62203;BME280;48199;49.138;7.414;2022-08-03T02:19:53;98393.09;;;14.42;98.29
62203;BME280;48199;49.138;7.414;2022-08-03T02:22:21;98392.84;;;14.27;98.74
62203;BME280;48199;49.138;7.414;2022-08-03T02:24:48;98399.75;;;14.31;99.90
62203;BME280;48199;49.138;7.414;2022-08-03T02:27:19;98395.81;;;14.41;100.00
62203;BME280;48199;49.138;7.414;2022-08-03T02:29:50;98403.53;;;14.47;100.00
62203;BME280;48199;49.138;7.414;2022-08-03T02:32:21;98398.78;;;14.55;99.29
62203;BME280;48199;49.138;7.414;2022-08-03T02:34:50;98396.91;;;14.35;98.17
62203;BME280;48199;49.138;7.414;2022-08-03T02:37:18;98393.88;;;14.21;98.69
62203;BME280;48199;49.138;7.414;2022-08-03T02:39:44;98398.34;;;14.21;99.74
62203;BME280;48199;49.138;7.414;2022-08-03T02:42:13;98397.91;;;14.33;99.71
62203;BME280;48199;49.138;7.414;2022-08-03T02:44:41;98396.84;;;14.14;99.59
62203;BME280;48199;49.138;7.414;2022-08-03T02:47:12;98400.03;;;14.22;99.41
62203;BME280;48199;49.138;7.414;2022-08-03T02:49:37;98392.09;;;14.23;99.44
62203;BME280;48199;49.138;7.414;2022-08-03T02:52:08;98392.97;;;14.24;99.75
62203;BME280;48199;49.138;7.414;2022-08-03T02:54:37;98395.50;;;14.27;99.88
62203;BME280;48199;49.138;7.414;2022-08-03T02:57:06;98390.97;;;14.29;100.00
62203;BME280;48199;49.138;7.414;2022-08-03T02:59:32;98384.78;;;14.30;99.89
62203;BME280;48199;49.138;7.414;2022-08-03T03:01:59;98393.50;;;14.32;99.73
62203;BME280;48199;49.138;7.414;2022-08-03T03:04:27;98394.28;;;14.35;99.38
62203;BME280;48199;49.138;7.414;2022-08-03T03:06:54;98394.97;;;14.16;98.52
62203;BME280;48199;49.138;7.414;2022-08-03T03:09:21;98395.84;;;14.16;99.30
62203;BME280;48199;49.138;7.414;2022-08-03T03:11:48;98398.13;;;14.27;99.59
62203;BME280;48199;49.138;7.414;2022-08-03T03:14:14;98398.13;;;14.27;99.20
62203;BME280;48199;49.138;7.414;2022-08-03T03:16:41;98393.88;;;14.21;99.38
62203;BME280;48199;49.138;7.414;2022-08-03T03:19:10;98395.91;;;14.15;99.27
62203;BME280;48199;49.138;7.414;2022-08-03T03:21:37;98397.13;;;14.06;98.64
62203;BME280;48199;49.138;7.414;2022-08-03T03:24:04;98391.34;;;13.95;98.97
62203;BME280;48199;49.138;7.414;2022-08-03T03:26:30;98393.72;;;14.03;99.31
62203;BME280;48199;49.138;7.414;2022-08-03T03:28:56;98397.19;;;14.05;99.40
62203;BME280;48199;49.138;7.414;2022-08-03T03:31:22;98393.88;;;13.98;99.51
62203;BME280;48199;49.138;7.414;2022-08-03T03:33:47;98385.09;;;13.98;100.00
62203;BME280;48199;49.138;7.414;2022-08-03T03:36:13;98391.50;;;13.91;100.00
62203;BME280;48199;49.138;7.414;2022-08-03T03:38:39;98393.78;;;13.77;100.00
62203;BME280;48199;49.138;7.414;2022-08-03T03:41:04;98391.47;;;13.68;100.00
62203;BME280;48199;49.138;7.414;2022-08-03T03:43:30;98399.31;;;13.71;100.00
62203;BME280;48199;49.138;7.414;2022-08-03T03:45:57;98391.25;;;13.74;100.00
62203;BME280;48199;49.138;7.414;2022-08-03T03:48:23;98396.44;;;13.77;100.00
62203;BME280;48199;49.138;7.414;2022-08-03T03:50:49;98396.34;;;13.80;100.00
62203;BME280;48199;49.138;7.414;2022-08-03T03:53:14;98399.66;;;13.85;100.00
62203;BME280;48199;49.138;7.414;2022-08-03T03:55:40;98400.44;;;13.88;100.00
62203;BME280;48199;49.138;7.414;2022-08-03T03:58:06;98392.44;;;13.90;100.00
62203;BME280;48199;49.138;7.414;2022-08-03T04:00:32;98400.31;;;13.91;100.00
62203;BME280;48199;49.138;7.414;2022-08-03T04:02:57;98392.53;;;13.87;100.00
62203;BME280;48199;49.138;7.414;2022-08-03T04:05:23;98396.34;;;13.80;99.78
62203;BME280;48199;49.138;7.414;2022-08-03T04:08:10;98404.09;;;13.84;99.67
62203;BME280;48199;49.138;7.414;2022-08-03T04:11:15;98406.31;;;13.72;99.38
62203;BME280;48199;49.138;7.414;2022-08-03T04:16:15;98403.44;;;13.78;100.00
62203;BME280;48199;49.138;7.414;2022-08-03T04:18:43;98404.00;;;13.87;100.00
62203;BME280;48199;49.138;7.414;2022-08-03T04:21:14;98398.38;;;13.96;100.00
62203;BME280;48199;49.138;7.414;2022-08-03T04:23:43;98402.69;;;13.99;99.38
62203;BME280;48199;49.138;7.414;2022-08-03T04:26:12;98404.72;;;13.91;98.19
62203;BME280;48199;49.138;7.414;2022-08-03T04:28:41;98397.84;;;13.87;98.40
62203;BME280;48199;49.138;7.414;2022-08-03T04:31:09;98396.91;;;13.88;98.24
62203;BME280;48199;49.138;7.414;2022-08-03T04:33:36;98404.94;;;13.85;99.10
62203;BME280;48199;49.138;7.414;2022-08-03T04:36:05;98404.72;;;13.91;99.51
62203;BME280;48199;49.138;7.414;2022-08-03T04:38:35;98410.72;;;13.96;99.35
62203;BME280;48199;49.138;7.414;2022-08-03T04:41:00;98399.66;;;13.85;99.19
62203;BME280;48199;49.138;7.414;2022-08-03T04:43:27;98409.97;;;13.92;99.73
62203;BME280;48199;49.138;7.414;2022-08-03T04:45:53;98409.59;;;14.03;100.00
62203;BME280;48199;49.138;7.414;2022-08-03T04:48:20;98415.31;;;14.15;99.85
62203;BME280;48199;49.138;7.414;2022-08-03T04:50:46;98419.44;;;14.24;99.52
62203;BME280;48199;49.138;7.414;2022-08-03T04:53:12;98417.47;;;14.29;99.48
62203;BME280;48199;49.138;7.414;2022-08-03T04:55:37;98422.19;;;14.44;98.53
62203;BME280;48199;49.138;7.414;2022-08-03T04:58:04;98423.69;;;14.72;97.36
62203;BME280;48199;49.138;7.414;2022-08-03T05:00:30;98426.28;;;14.74;95.18
62203;BME280;48199;49.138;7.414;2022-08-03T05:02:56;98434.16;;;15.62;92.48
62203;BME280;48199;49.138;7.414;2022-08-03T05:05:21;98438.63;;;16.78;86.47
62203;BME280;48199;49.138;7.414;2022-08-03T05:07:47;98431.97;;;17.41;82.66
62203;BME280;48199;49.138;7.414;2022-08-03T05:10:13;98435.22;;;18.48;78.79
62203;BME280;48199;49.138;7.414;2022-08-03T05:12:39;98430.41;;;19.34;74.96
62203;BME280;48199;49.138;7.414;2022-08-03T05:15:05;98431.66;;;20.17;72.20
62203;BME280;48199;49.138;7.414;2022-08-03T05:17:30;98439.78;;;20.58;69.99
62203;BME280;48199;49.138;7.414;2022-08-03T05:19:58;98437.53;;;21.20;68.44
62203;BME280;48199;49.138;7.414;2022-08-03T05:22:23;98436.38;;;21.78;66.49
62203;BME280;48199;49.138;7.414;2022-08-03T05:24:49;98427.50;;;21.51;66.38
62203;BME280;48199;49.138;7.414;2022-08-03T05:27:15;98435.00;;;21.85;66.06
62203;BME280;48199;49.138;7.414;2022-08-03T05:29:47;98433.88;;;22.14;65.08
62203;BME280;48199;49.138;7.414;2022-08-03T05:32:12;98447.41;;;23.00;63.60
62203;BME280;48199;49.138;7.414;2022-08-03T05:34:38;98443.94;;;23.23;61.82
62203;BME280;48199;49.138;7.414;2022-08-03T05:37:03;98442.38;;;23.19;60.41
62203;BME280;48199;49.138;7.414;2022-08-03T05:39:29;98456.91;;;24.00;59.91
62203;BME280;48199;49.138;7.414;2022-08-03T05:41:54;98448.34;;;24.29;58.57
62203;BME280;48199;49.138;7.414;2022-08-03T05:44:19;98453.13;;;24.48;59.07
62203;BME280;48199;49.138;7.414;2022-08-03T05:46:45;98444.28;;;24.80;56.83
62203;BME280;48199;49.138;7.414;2022-08-03T05:49:10;98452.84;;;24.85;57.51
62203;BME280;48199;49.138;7.414;2022-08-03T05:51:36;98453.03;;;25.49;56.05
62203;BME280;48199;49.138;7.414;2022-08-03T05:54:01;98447.44;;;25.83;54.70
62203;BME280;48199;49.138;7.414;2022-08-03T05:56:27;98457.66;;;25.58;55.76
62203;BME280;48199;49.138;7.414;2022-08-03T05:58:53;98451.13;;;25.82;54.10
62203;BME280;48199;49.138;7.414;2022-08-03T06:01:19;98441.06;;;26.16;53.92
62203;BME280;48199;49.138;7.414;2022-08-03T06:03:49;98448.38;;;25.51;55.81
62203;BME280;48199;49.138;7.414;2022-08-03T06:06:15;98439.22;;;25.85;55.59
62203;BME280;48199;49.138;7.414;2022-08-03T06:08:41;98446.47;;;26.36;54.13
62203;BME280;48199;49.138;7.414;2022-08-03T06:11:07;98450.16;;;27.16;52.57
62203;BME280;48199;49.138;7.414;2022-08-03T06:13:33;98451.09;;;26.96;53.85
62203;BME280;48199;49.138;7.414;2022-08-03T06:15:58;98443.75;;;27.47;52.18
62203;BME280;48199;49.138;7.414;2022-08-03T06:18:24;98444.97;;;28.11;50.89
62203;BME280;48199;49.138;7.414;2022-08-03T06:20:50;98448.25;;;28.24;50.46
62203;BME280;48199;49.138;7.414;2022-08-03T06:23:16;98446.81;;;28.20;50.88
62203;BME280;48199;49.138;7.414;2022-08-03T06:25:41;98452.41;;;28.84;50.05
62203;BME280;48199;49.138;7.414;2022-08-03T06:28:07;98455.47;;;29.72;47.59
62203;BME280;48199;49.138;7.414;2022-08-03T06:30:32;98455.47;;;29.45;48.59
62203;BME280;48199;49.138;7.414;2022-08-03T06:32:58;98444.44;;;30.18;46.21
62203;BME280;48199;49.138;7.414;2022-08-03T06:35:23;98451.63;;;30.27;46.75
62203;BME280;48199;49.138;7.414;2022-08-03T06:37:50;98449.38;;;30.83;44.74
62203;BME280;48199;49.138;7.414;2022-08-03T06:40:20;98444.59;;;30.59;46.37
62203;BME280;48199;49.138;7.414;2022-08-03T06:42:54;98452.25;;;31.07;44.96
62203;BME280;48199;49.138;7.414;2022-08-03T06:45:19;98441.38;;;30.81;45.49
62203;BME280;48199;49.138;7.414;2022-08-03T06:47:45;98446.47;;;31.10;44.70
62203;BME280;48199;49.138;7.414;2022-08-03T06:50:10;98454.88;;;31.25;44.96
62203;BME280;48199;49.138;7.414;2022-08-03T06:52:36;98443.13;;;31.24;45.08
62203;BME280;48199;49.138;7.414;2022-08-03T06:55:01;98450.25;;;32.24;43.79
62203;BME280;48199;49.138;7.414;2022-08-03T06:57:27;98455.03;;;32.94;41.97
62203;BME280;48199;49.138;7.414;2022-08-03T06:59:52;98457.09;;;32.68;43.93
62203;BME280;48199;49.138;7.414;2022-08-03T07:02:17;98466.28;;;33.08;43.47
62203;BME280;48199;49.138;7.414;2022-08-03T07:04:43;98471.97;;;33.75;43.09
62203;BME280;48199;49.138;7.414;2022-08-03T07:07:09;98467.47;;;33.60;42.08
62203;BME280;48199;49.138;7.414;2022-08-03T07:09:34;98467.81;;;34.18;41.09
62203;BME280;48199;49.138;7.414;2022-08-03T07:12:00;98472.91;;;34.21;41.04
62203;BME280;48199;49.138;7.414;2022-08-03T07:14:26;98472.09;;;34.65;38.89
62203;BME280;48199;49.138;7.414;2022-08-03T07:16:52;98466.13;;;34.62;38.88
62203;BME280;48199;49.138;7.414;2022-08-03T07:19:17;98463.28;;;34.33;40.61
62203;BME280;48199;49.138;7.414;2022-08-03T07:21:42;98464.13;;;33.80;40.67
62203;BME280;48199;49.138;7.414;2022-08-03T07:24:09;98461.84;;;33.84;39.60
62203;BME280;48199;49.138;7.414;2022-08-03T07:26:35;98469.22;;;34.59;39.34
62203;BME280;48199;49.138;7.414;2022-08-03T07:29:00;98465.66;;;34.95;39.01
62203;BME280;48199;49.138;7.414;2022-08-03T07:31:26;98460.75;;;34.91;38.44
62203;BME280;48199;49.138;7.414;2022-08-03T07:33:51;98476.09;;;36.08;37.91
62203;BME280;48199;49.138;7.414;2022-08-03T07:36:17;98465.25;;;36.00;36.83
62203;BME280;48199;49.138;7.414;2022-08-03T07:38:42;98476.63;;;36.75;35.13
62203;BME280;48199;49.138;7.414;2022-08-03T07:41:07;98477.47;;;37.31;32.32
62203;BME280;48199;49.138;7.414;2022-08-03T07:43:33;98468.94;;;36.70;34.29
62203;BME280;48199;49.138;7.414;2022-08-03T07:45:58;98478.75;;;37.35;33.40
62203;BME280;48199;49.138;7.414;2022-08-03T07:48:23;98471.78;;;37.05;33.42
62203;BME280;48199;49.138;7.414;2022-08-03T07:50:49;98474.28;;;37.61;33.35
62203;BME280;48199;49.138;7.414;2022-08-03T07:53:14;98483.34;;;38.02;33.30
62203;BME280;48199;49.138;7.414;2022-08-03T07:55:40;98476.78;;;37.97;32.01
62203;BME280;48199;49.138;7.414;2022-08-03T07:58:06;98480.81;;;38.01;32.44
62203;BME280;48199;49.138;7.414;2022-08-03T08:00:34;98473.13;;;38.37;32.03
62203;BME280;48199;49.138;7.414;2022-08-03T08:02:59;98473.84;;;38.91;30.56
62203;BME280;48199;49.138;7.414;2022-08-03T08:05:25;98472.13;;;38.77;30.56
62203;BME280;48199;49.138;7.414;2022-08-03T08:07:50;98467.81;;;38.29;30.56
62203;BME280;48199;49.138;7.414;2022-08-03T08:10:16;98474.63;;;38.39;30.70
62203;BME280;48199;49.138;7.414;2022-08-03T08:12:41;98467.69;;;37.56;31.06
62203;BME280;48199;49.138;7.414;2022-08-03T08:15:07;98469.13;;;37.45;29.86
62203;BME280;48199;49.138;7.414;2022-08-03T08:17:43;98471.63;;;38.28;30.23
62203;BME280;48199;49.138;7.414;2022-08-03T08:20:10;98471.97;;;38.98;28.16
62203;BME280;48199;49.138;7.414;2022-08-03T08:22:36;98476.16;;;39.14;29.48
62203;BME280;48199;49.138;7.414;2022-08-03T08:25:02;98473.38;;;37.48;29.55
62203;BME280;48199;49.138;7.414;2022-08-03T08:27:28;98472.88;;;37.38;29.38
62203;BME280;48199;49.138;7.414;2022-08-03T08:29:53;98475.22;;;38.28;29.03
62203;BME280;48199;49.138;7.414;2022-08-03T08:32:19;98479.34;;;38.98;28.26
62203;BME280;48199;49.138;7.414;2022-08-03T08:34:44;98473.38;;;38.94;28.50
62203;BME280;48199;49.138;7.414;2022-08-03T08:37:09;98471.94;;;38.72;28.99
62203;BME280;48199;49.138;7.414;2022-08-03T08:39:35;98471.25;;;39.35;27.68
62203;BME280;48199;49.138;7.414;2022-08-03T08:42:00;98480.97;;;39.57;27.49
62203;BME280;48199;49.138;7.414;2022-08-03T08:44:26;98471.72;;;39.39;28.70
62203;BME280;48199;49.138;7.414;2022-08-03T08:46:52;98463.66;;;39.24;27.07
62203;BME280;48199;49.138;7.414;2022-08-03T08:49:22;98468.56;;;38.96;27.52
62203;BME280;48199;49.138;7.414;2022-08-03T08:51:50;98465.78;;;38.57;27.60
62203;BME280;48199;49.138;7.414;2022-08-03T08:54:19;98461.22;;;38.17;29.00
62203;BME280;48199;49.138;7.414;2022-08-03T08:56:46;98452.66;;;38.52;27.87
62203;BME280;48199;49.138;7.414;2022-08-03T08:59:12;98459.44;;;38.76;27.17
62203;BME280;48199;49.138;7.414;2022-08-03T09:01:38;98448.00;;;37.80;28.22
62203;BME280;48199;49.138;7.414;2022-08-03T09:04:07;98447.28;;;37.65;27.97
62203;BME280;48199;49.138;7.414;2022-08-03T09:06:34;98450.13;;;38.57;28.18
62203;BME280;48199;49.138;7.414;2022-08-03T09:08:59;98445.66;;;37.77;27.53
62203;BME280;48199;49.138;7.414;2022-08-03T09:11:25;98448.47;;;37.56;27.96
62203;BME280;48199;49.138;7.414;2022-08-03T09:13:50;98458.72;;;37.68;27.01
62203;BME280;48199;49.138;7.414;2022-08-03T09:16:17;98448.97;;;38.26;27.16
62203;BME280;48199;49.138;7.414;2022-08-03T09:18:45;98457.78;;;39.01;26.36
62203;BME280;48199;49.138;7.414;2022-08-03T09:21:16;98455.31;;;39.63;26.48
62203;BME280;48199;49.138;7.414;2022-08-03T09:23:47;98461.00;;;39.81;27.23
62203;BME280;48199;49.138;7.414;2022-08-03T09:26:20;98449.25;;;38.76;26.45
62203;BME280;48199;49.138;7.414;2022-08-03T09:28:46;98452.47;;;37.87;27.48
62203;BME280;48199;49.138;7.414;2022-08-03T09:31:11;98444.19;;;37.40;27.19
62203;BME280;48199;49.138;7.414;2022-08-03T09:33:47;98460.69;;;38.67;26.79
62203;BME280;48199;49.138;7.414;2022-08-03T09:36:39;98460.28;;;39.09;25.91
62203;BME280;48199;49.138;7.414;2022-08-03T09:39:11;98456.50;;;39.10;26.22
62203;BME280;48199;49.138;7.414;2022-08-03T09:41:39;98451.34;;;39.33;26.42
62203;BME280;48199;49.138;7.414;2022-08-03T09:44:05;98430.94;;;37.97;26.60
62203;BME280;48199;49.138;7.414;2022-08-03T09:46:30;98438.75;;;37.60;27.37
62203;BME280;48199;49.138;7.414;2022-08-03T09:49:12;98434.81;;;38.29;26.78
62203;BME280;48199;49.138;7.414;2022-08-03T09:51:39;98421.69;;;37.24;27.36
62203;BME280;48199;49.138;7.414;2022-08-03T09:54:05;98424.44;;;37.24;27.58
62203;BME280;48199;49.138;7.414;2022-08-03T09:56:56;98420.59;;;37.59;27.28
62203;BME280;48199;49.138;7.414;2022-08-03T09:59:27;98428.34;;;37.83;27.55
62203;BME280;48199;49.138;7.414;2022-08-03T10:01:54;98426.81;;;38.53;26.48
62203;BME280;48199;49.138;7.414;2022-08-03T10:04:20;98432.78;;;38.96;27.35
62203;BME280;48199;49.138;7.414;2022-08-03T10:07:05;98415.41;;;39.02;26.17
62203;BME280;48199;49.138;7.414;2022-08-03T10:09:31;98423.88;;;39.07;26.57
62203;BME280;48199;49.138;7.414;2022-08-03T10:11:57;98431.38;;;39.57;25.97
62203;BME280;48199;49.138;7.414;2022-08-03T10:14:31;98415.91;;;39.50;26.64
62203;BME280;48199;49.138;7.414;2022-08-03T10:16:56;98411.13;;;39.19;25.95
62203;BME280;48199;49.138;7.414;2022-08-03T10:19:22;98405.97;;;39.49;25.64
62203;BME280;48199;49.138;7.414;2022-08-03T10:21:54;98392.69;;;39.13;26.36
62203;BME280;48199;49.138;7.414;2022-08-03T10:24:24;98385.75;;;38.91;26.17
62203;BME280;48199;49.138;7.414;2022-08-03T10:26:52;98384.09;;;38.64;27.42
62203;BME280;48199;49.138;7.414;2022-08-03T10:29:23;98381.94;;;38.92;26.24
62203;BME280;48199;49.138;7.414;2022-08-03T10:31:53;98373.91;;;38.71;26.38
62203;BME280;48199;49.138;7.414;2022-08-03T10:34:25;98375.56;;;39.11;26.51
62203;BME280;48199;49.138;7.414;2022-08-03T10:36:52;98378.44;;;39.29;26.71
62203;BME280;48199;49.138;7.414;2022-08-03T10:39:21;98373.88;;;38.97;26.66
62203;BME280;48199;49.138;7.414;2022-08-03T10:41:48;98358.88;;;38.47;26.67
62203;BME280;48199;49.138;7.414;2022-08-03T10:44:19;98361.81;;;39.05;25.93
62203;BME280;48199;49.138;7.414;2022-08-03T10:46:47;98356.69;;;39.15;25.89
62203;BME280;48199;49.138;7.414;2022-08-03T10:49:16;98364.91;;;39.41;26.45
62203;BME280;48199;49.138;7.414;2022-08-03T10:51:44;98346.75;;;38.94;26.65
62203;BME280;48199;49.138;7.414;2022-08-03T10:54:42;98356.81;;;38.56;27.57
62203;BME280;48199;49.138;7.414;2022-08-03T10:57:52;98350.78;;;39.11;26.91
62203;BME280;48199;49.138;7.414;2022-08-03T11:00:23;98348.47;;;38.95;27.08
62203;BME280;48199;49.138;7.414;2022-08-03T11:03:08;98345.06;;;38.93;26.60
62203;BME280;48199;49.138;7.414;2022-08-03T11:05:42;98347.84;;;38.93;26.67
62203;BME280;48199;49.138;7.414;2022-08-03T11:08:18;98345.06;;;38.93;26.44
62203;BME280;48199;49.138;7.414;2022-08-03T11:10:45;98327.47;;;37.64;26.99
62203;BME280;48199;49.138;7.414;2022-08-03T11:13:14;98325.72;;;37.09;26.87
62203;BME280;48199;49.138;7.414;2022-08-03T11:15:43;98336.34;;;37.19;27.76
62203;BME280;48199;49.138;7.414;2022-08-03T11:18:11;98340.41;;;37.83;28.55
62203;BME280;48199;49.138;7.414;2022-08-03T11:23:13;98326.03;;;37.94;26.83
62203;BME280;48199;49.138;7.414;2022-08-03T11:26:10;98319.88;;;37.79;27.36
62203;BME280;48199;49.138;7.414;2022-08-03T11:28:36;98323.97;;;38.09;27.71
62203;BME280;48199;49.138;7.414;2022-08-03T11:34:05;98313.19;;;38.27;27.49
62203;BME280;48199;49.138;7.414;2022-08-03T11:39:38;98297.19;;;37.57;27.42
62203;BME280;48199;49.138;7.414;2022-08-03T11:45:07;98306.84;;;37.27;28.76
62203;BME280;48199;49.138;7.414;2022-08-03T11:47:36;98303.88;;;37.29;28.26
62203;BME280;48199;49.138;7.414;2022-08-03T11:50:02;98299.34;;;37.15;28.27
62203;BME280;48199;49.138;7.414;2022-08-03T11:52:36;98293.13;;;36.93;28.39
62203;BME280;48199;49.138;7.414;2022-08-03T11:55:07;98289.13;;;36.61;29.38
62203;BME280;48199;49.138;7.414;2022-08-03T11:57:34;98296.53;;;36.67;29.66
62203;BME280;48199;49.138;7.414;2022-08-03T11:59:59;98295.66;;;36.33;30.48
62203;BME280;48199;49.138;7.414;2022-08-03T12:02:25;98289.09;;;36.27;29.49
62203;BME280;48199;49.138;7.414;2022-08-03T12:04:56;98281.75;;;35.86;29.11
62203;BME280;48199;49.138;7.414;2022-08-03T12:07:27;98283.28;;;35.88;29.92
62203;BME280;48199;49.138;7.414;2022-08-03T12:10:07;98289.66;;;35.95;30.51
62203;BME280;48199;49.138;7.414;2022-08-03T12:12:33;98281.66;;;35.79;30.84
62203;BME280;48199;49.138;7.414;2022-08-03T12:14:58;98284.28;;;35.66;31.32
62203;BME280;48199;49.138;7.414;2022-08-03T12:17:35;98283.88;;;35.48;30.61
62203;BME280;48199;49.138;7.414;2022-08-03T12:20:02;98277.88;;;35.38;31.20
62203;BME280;48199;49.138;7.414;2022-08-03T12:22:38;98274.16;;;35.46;32.11
62203;BME280;48199;49.138;7.414;2022-08-03T12:25:06;98272.53;;;35.51;31.47
62203;BME280;48199;49.138;7.414;2022-08-03T12:27:31;98267.66;;;35.32;31.17
62203;BME280;48199;49.138;7.414;2022-08-03T12:29:58;98262.69;;;35.36;31.57
62203;BME280;48199;49.138;7.414;2022-08-03T12:32:26;98256.03;;;35.09;31.11
62203;BME280;48199;49.138;7.414;2022-08-03T12:34:52;98253.03;;;34.75;32.46
62203;BME280;48199;49.138;7.414;2022-08-03T12:37:18;98262.84;;;34.98;32.34
62203;BME280;48199;49.138;7.414;2022-08-03T12:39:52;98253.53;;;34.93;32.41
62203;BME280;48199;49.138;7.414;2022-08-03T12:42:17;98260.88;;;34.92;32.21
62203;BME280;48199;49.138;7.414;2022-08-03T12:44:43;98256.91;;;34.95;31.84
62203;BME280;48199;49.138;7.414;2022-08-03T12:47:10;98248.81;;;34.72;31.90
62203;BME280;48199;49.138;7.414;2022-08-03T12:49:45;98254.19;;;34.66;32.15
62203;BME280;48199;49.138;7.414;2022-08-03T12:52:11;98244.94;;;34.38;32.01
62203;BME280;48199;49.138;7.414;2022-08-03T12:54:37;98249.25;;;34.32;32.76
62203;BME280;48199;49.138;7.414;2022-08-03T12:57:06;98236.13;;;34.13;32.51
62203;BME280;48199;49.138;7.414;2022-08-03T12:59:41;98243.50;;;34.27;33.74
62203;BME280;48199;49.138;7.414;2022-08-03T13:04:42;98239.25;;;34.25;33.17
62203;BME280;48199;49.138;7.414;2022-08-03T13:07:10;98231.91;;;34.11;32.43
62203;BME280;48199;49.138;7.414;2022-08-03T13:09:43;98240.28;;;34.09;33.94
62203;BME280;48199;49.138;7.414;2022-08-03T13:14:39;98230.78;;;34.20;33.15
62203;BME280;48199;49.138;7.414;2022-08-03T13:17:05;98223.44;;;33.83;33.71
62203;BME280;48199;49.138;7.414;2022-08-03T13:19:40;98234.84;;;33.87;34.76
62203;BME280;48199;49.138;7.414;2022-08-03T13:22:16;98230.06;;;33.89;33.33
62203;BME280;48199;49.138;7.414;2022-08-03T13:24:43;98226.59;;;33.95;33.64
62203;BME280;48199;49.138;7.414;2022-08-03T13:27:09;98217.13;;;33.83;34.52
62203;BME280;48199;49.138;7.414;2022-08-03T13:29:35;98226.50;;;34.03;34.34
62203;BME280;48199;49.138;7.414;2022-08-03T13:32:01;98221.03;;;33.88;34.37
62203;BME280;48199;49.138;7.414;2022-08-03T13:34:26;98208.75;;;33.84;33.86
62203;BME280;48199;49.138;7.414;2022-08-03T13:36:52;98225.31;;;34.05;33.79